createdAt,value
2019-03-06T00:00:32.205Z,96.83
2019-03-06T00:03:05.745Z,97.34
2019-03-06T00:05:37.677Z,97.10
2019-03-06T00:08:09.611Z,96.74
2019-03-06T00:10:41.595Z,96.91
2019-03-06T00:13:13.494Z,97.43
2019-03-06T00:15:45.435Z,97.61
2019-03-06T00:18:17.304Z,97.63
2019-03-06T00:20:49.159Z,97.85
2019-03-06T00:23:21.058Z,98.27
2019-03-06T00:25:52.900Z,98.42
2019-03-06T00:28:24.754Z,98.54
2019-03-06T00:30:56.687Z,99.12
2019-03-06T00:33:28.656Z,99.48
2019-03-06T00:36:01.519Z,100.00
2019-03-06T00:38:34.536Z,100.00
2019-03-06T00:41:28.342Z,100.00
2019-03-06T00:44:00.345Z,100.00
2019-03-06T00:46:33.360Z,100.00
2019-03-06T00:49:05.267Z,100.00
2019-03-06T00:51:37.299Z,100.00
2019-03-06T00:54:09.254Z,100.00
2019-03-06T00:56:41.062Z,100.00
2019-03-06T00:59:12.948Z,100.00
2019-03-06T01:01:44.837Z,100.00
2019-03-06T01:04:16.714Z,100.00
2019-03-06T01:06:48.606Z,100.00
2019-03-06T01:09:20.472Z,100.00
2019-03-06T01:11:52.343Z,100.00
2019-03-06T01:14:24.236Z,100.00
2019-03-06T01:16:56.186Z,100.00
2019-03-06T01:19:28.134Z,100.00
2019-03-06T01:22:00.053Z,100.00
2019-03-06T01:24:32.042Z,100.00
2019-03-06T01:27:03.998Z,100.00
2019-03-06T01:29:35.847Z,100.00
2019-03-06T01:32:07.719Z,100.00
2019-03-06T01:35:04.589Z,100.00
2019-03-06T01:37:56.362Z,100.00
2019-03-06T01:40:39.210Z,100.00
2019-03-06T01:43:17.585Z,100.00
2019-03-06T01:45:49.506Z,100.00
2019-03-06T01:48:21.448Z,100.00
2019-03-06T01:50:53.374Z,100.00
2019-03-06T01:53:25.307Z,100.00
2019-03-06T01:55:57.165Z,100.00
2019-03-06T01:58:32.615Z,100.00
2019-03-06T02:01:04.706Z,100.00
2019-03-06T02:03:38.799Z,100.00
2019-03-06T02:06:10.234Z,100.00
2019-03-06T02:08:42.221Z,100.00
2019-03-06T02:11:14.197Z,100.00
2019-03-06T02:13:46.106Z,100.00
2019-03-06T02:16:19.630Z,100.00
2019-03-06T02:18:51.560Z,100.00
2019-03-06T02:21:23.485Z,100.00
2019-03-06T02:23:55.376Z,100.00
2019-03-06T02:26:30.064Z,100.00
2019-03-06T02:29:03.124Z,100.00
2019-03-06T02:31:34.965Z,100.00
2019-03-06T02:34:06.932Z,100.00
2019-03-06T02:36:38.773Z,100.00
2019-03-06T02:39:12.129Z,100.00
2019-03-06T02:41:45.670Z,100.00
2019-03-06T02:44:18.639Z,100.00
2019-03-06T02:46:50.561Z,100.00
2019-03-06T02:49:22.629Z,100.00
2019-03-06T02:51:54.678Z,100.00
2019-03-06T02:54:26.576Z,100.00
2019-03-06T02:57:02.216Z,100.00
2019-03-06T03:00:02.059Z,100.00
2019-03-06T03:02:43.881Z,100.00
2019-03-06T03:05:27.242Z,100.00
2019-03-06T03:08:00.789Z,100.00
2019-03-06T03:10:32.706Z,100.00
2019-03-06T03:13:07.205Z,100.00
2019-03-06T03:15:39.167Z,100.00
2019-03-06T03:18:11.089Z,100.00
2019-03-06T03:20:44.114Z,100.00
2019-03-06T03:23:16.506Z,100.00
2019-03-06T03:25:48.462Z,100.00
2019-03-06T03:28:22.180Z,100.00
2019-03-06T03:30:54.056Z,100.00
2019-03-06T03:33:26.390Z,100.00
2019-03-06T03:35:58.394Z,100.00
2019-03-06T03:38:30.522Z,100.00
2019-03-06T03:41:03.123Z,100.00
2019-03-06T03:43:35.184Z,100.00
2019-03-06T03:46:07.234Z,100.00
2019-03-06T03:48:39.229Z,100.00
2019-03-06T03:51:12.676Z,100.00
2019-03-06T03:53:44.663Z,100.00
2019-03-06T03:56:18.472Z,100.00
2019-03-06T03:58:50.636Z,100.00
2019-03-06T04:01:25.684Z,100.00
2019-03-06T04:03:57.503Z,100.00
2019-03-06T04:06:29.469Z,100.00
2019-03-06T04:09:01.287Z,100.00
2019-03-06T04:11:34.905Z,100.00
2019-03-06T04:14:06.946Z,100.00
2019-03-06T04:16:38.922Z,100.00
2019-03-06T04:19:10.748Z,100.00
2019-03-06T04:21:43.802Z,100.00
2019-03-06T04:24:15.852Z,100.00
2019-03-06T04:26:47.913Z,100.00
2019-03-06T04:29:19.917Z,100.00
2019-03-06T04:31:51.793Z,100.00
2019-03-06T04:34:24.662Z,100.00
2019-03-06T04:36:56.689Z,100.00
2019-03-06T04:39:28.605Z,100.00
2019-03-06T04:42:00.492Z,100.00
2019-03-06T04:44:32.417Z,100.00
2019-03-06T04:47:04.466Z,100.00
2019-03-06T04:49:36.315Z,100.00
2019-03-06T04:52:08.148Z,100.00
2019-03-06T04:54:40.012Z,100.00
2019-03-06T04:57:11.975Z,100.00
2019-03-06T04:59:44.007Z,100.00
2019-03-06T05:02:16.080Z,100.00
2019-03-06T05:04:47.945Z,100.00
2019-03-06T05:07:19.916Z,100.00
2019-03-06T05:09:51.789Z,100.00
2019-03-06T05:12:24.005Z,100.00
2019-03-06T05:14:56.001Z,100.00
2019-03-06T05:17:38.070Z,100.00
2019-03-06T05:20:10.656Z,100.00
2019-03-06T05:22:44.509Z,100.00
2019-03-06T05:25:16.435Z,100.00
2019-03-06T05:27:50.761Z,100.00
2019-03-06T05:30:24.724Z,100.00
2019-03-06T05:32:57.768Z,100.00
2019-03-06T05:36:09.210Z,100.00
2019-03-06T05:39:07.662Z,100.00
2019-03-06T05:41:39.737Z,100.00
2019-03-06T05:44:11.694Z,100.00
2019-03-06T05:46:43.800Z,100.00
2019-03-06T05:49:15.646Z,100.00
2019-03-06T05:51:47.568Z,100.00
2019-03-06T05:54:19.541Z,100.00
2019-03-06T05:56:51.706Z,100.00
2019-03-06T05:59:23.766Z,100.00
2019-03-06T06:01:55.722Z,100.00
2019-03-06T06:04:27.894Z,100.00
2019-03-06T06:07:01.267Z,100.00
2019-03-06T06:09:33.102Z,100.00
2019-03-06T06:12:05.076Z,100.00
2019-03-06T06:14:37.008Z,100.00
2019-03-06T06:17:09.070Z,100.00
2019-03-06T06:19:41.281Z,100.00
2019-03-06T06:22:31.872Z,100.00
2019-03-06T06:25:03.762Z,100.00
2019-03-06T06:27:35.652Z,100.00
2019-03-06T06:30:08.104Z,100.00
2019-03-06T06:32:39.961Z,100.00
2019-03-06T06:35:12.086Z,100.00
2019-03-06T06:37:44.216Z,100.00
2019-03-06T06:40:16.429Z,100.00
2019-03-06T06:42:48.350Z,100.00
2019-03-06T06:45:20.452Z,100.00
2019-03-06T06:48:13.926Z,100.00
2019-03-06T06:51:01.159Z,100.00
2019-03-06T06:54:06.712Z,100.00
2019-03-06T06:57:31.843Z,100.00
2019-03-06T07:01:24.467Z,100.00
2019-03-06T07:05:15.007Z,100.00
2019-03-06T07:08:04.978Z,100.00
2019-03-06T07:10:41.936Z,100.00
2019-03-06T07:13:35.877Z,99.91
2019-03-06T07:16:44.867Z,98.80
2019-03-06T07:19:38.349Z,98.84
2019-03-06T07:22:44.660Z,98.82
2019-03-06T07:25:34.610Z,98.67
2019-03-06T07:28:29.265Z,99.94
2019-03-06T07:31:08.512Z,99.09
2019-03-06T07:34:00.535Z,97.88
2019-03-06T07:36:47.452Z,97.22
2019-03-06T07:39:40.536Z,96.83
2019-03-06T07:42:33.629Z,96.22
2019-03-06T07:46:00.265Z,94.56
2019-03-06T07:49:02.529Z,94.61
2019-03-06T07:51:53.274Z,94.30
2019-03-06T07:54:39.517Z,93.47
2019-03-06T07:57:39.084Z,93.23
2019-03-06T08:00:21.806Z,91.87
2019-03-06T08:03:40.851Z,90.41
2019-03-06T08:06:12.696Z,89.11
2019-03-06T08:08:44.984Z,89.17
2019-03-06T08:11:41.867Z,88.62
2019-03-06T08:14:32.522Z,88.00
2019-03-06T08:17:29.302Z,85.73
2019-03-06T08:20:18.961Z,84.48
2019-03-06T08:23:15.915Z,84.80
2019-03-06T08:25:49.023Z,86.23
2019-03-06T08:28:20.878Z,85.97
2019-03-06T08:31:10.507Z,83.93
2019-03-06T08:33:42.457Z,83.77
2019-03-06T08:36:14.621Z,83.06
2019-03-06T08:38:46.604Z,82.37
2019-03-06T08:41:18.410Z,79.98
2019-03-06T08:43:50.367Z,81.19
2019-03-06T08:46:41.082Z,80.22
2019-03-06T08:49:41.125Z,78.54
2019-03-06T08:52:34.823Z,76.88
2019-03-06T08:55:33.039Z,76.59
2019-03-06T08:58:29.634Z,77.06
2019-03-06T09:01:37.092Z,76.67
2019-03-06T09:04:41.023Z,76.57
2019-03-06T09:07:30.891Z,74.94
2019-03-06T09:10:30.752Z,74.52
2019-03-06T09:13:20.056Z,73.70
2019-03-06T09:16:11.478Z,73.87
2019-03-06T09:19:00.957Z,72.79
2019-03-06T09:21:47.565Z,71.92
2019-03-06T09:24:41.052Z,71.02
2019-03-06T09:27:31.770Z,70.57
2019-03-06T09:30:34.584Z,70.04
2019-03-06T09:33:28.472Z,68.14
2019-03-06T09:36:16.203Z,67.45
2019-03-06T09:39:15.964Z,66.61
2019-03-06T09:42:02.767Z,66.45
2019-03-06T09:44:53.432Z,65.20
2019-03-06T09:47:34.274Z,64.82
2019-03-06T09:50:27.695Z,65.55
2019-03-06T09:53:17.176Z,64.25
2019-03-06T09:56:03.083Z,63.69
2019-03-06T09:58:59.790Z,64.30
2019-03-06T10:01:49.665Z,63.88
2019-03-06T10:04:39.002Z,63.32
2019-03-06T10:07:32.761Z,63.47
2019-03-06T10:10:28.601Z,62.96
2019-03-06T10:13:17.905Z,62.04
2019-03-06T10:16:11.450Z,61.68
2019-03-06T10:18:47.623Z,60.72
2019-03-06T10:21:19.468Z,60.62
2019-03-06T10:23:51.337Z,61.33
2019-03-06T10:26:23.361Z,61.21
2019-03-06T10:28:55.350Z,60.12
2019-03-06T10:31:27.289Z,60.64
2019-03-06T10:34:01.935Z,59.62
2019-03-06T10:36:33.889Z,57.46
2019-03-06T10:39:07.607Z,57.74
2019-03-06T10:41:41.204Z,57.85
2019-03-06T10:44:13.423Z,58.41
2019-03-06T10:46:45.283Z,57.43
2019-03-06T10:49:17.378Z,57.86
2019-03-06T10:51:49.285Z,57.54
2019-03-06T10:54:21.305Z,57.32
2019-03-06T10:56:53.312Z,57.37
2019-03-06T10:59:25.286Z,55.96
2019-03-06T11:01:57.209Z,53.89
2019-03-06T11:04:33.683Z,54.71
2019-03-06T11:07:06.085Z,54.36
2019-03-06T11:09:38.491Z,54.28
2019-03-06T11:12:10.563Z,53.53
2019-03-06T11:14:44.533Z,52.70
2019-03-06T11:17:16.473Z,53.33
2019-03-06T11:19:48.550Z,53.60
2019-03-06T11:22:20.436Z,54.26
2019-03-06T11:24:52.521Z,53.97
2019-03-06T11:27:24.336Z,54.24
2019-03-06T11:29:56.249Z,53.42
2019-03-06T11:32:28.281Z,52.61
2019-03-06T11:35:00.312Z,53.55
2019-03-06T11:37:32.203Z,53.85
2019-03-06T11:40:04.929Z,53.44
2019-03-06T11:42:37.007Z,52.86
2019-03-06T11:45:11.897Z,52.05
2019-03-06T11:47:43.979Z,53.02
2019-03-06T11:50:16.726Z,53.45
2019-03-06T11:52:52.033Z,53.50
2019-03-06T11:55:24.267Z,54.27
2019-03-06T11:58:00.417Z,53.70
2019-03-06T12:00:35.345Z,52.64
2019-03-06T12:03:07.785Z,53.68
2019-03-06T12:05:39.705Z,53.47
2019-03-06T12:08:14.472Z,52.91
2019-03-06T12:10:47.029Z,52.68
2019-03-06T12:13:23.035Z,52.74
2019-03-06T12:15:55.157Z,52.79
2019-03-06T12:18:28.923Z,52.87
2019-03-06T12:21:00.945Z,52.57
2019-03-06T12:23:37.312Z,51.97
2019-03-06T12:26:10.982Z,52.77
2019-03-06T12:28:48.090Z,52.00
2019-03-06T12:31:21.501Z,51.32
2019-03-06T12:33:53.477Z,51.77
2019-03-06T12:36:29.945Z,51.45
2019-03-06T12:39:06.411Z,49.45
2019-03-06T12:41:42.236Z,49.39
2019-03-06T12:44:17.312Z,48.83
2019-03-06T12:46:53.415Z,49.15
2019-03-06T12:49:34.796Z,48.74
2019-03-06T12:52:11.048Z,48.93
2019-03-06T12:54:43.119Z,49.52
2019-03-06T12:57:16.364Z,49.37
2019-03-06T12:59:58.885Z,49.94
2019-03-06T13:02:33.990Z,50.31
2019-03-06T13:05:06.364Z,50.22
2019-03-06T13:07:38.537Z,50.46
2019-03-06T13:10:12.332Z,50.94
2019-03-06T13:12:50.976Z,51.50
2019-03-06T13:15:25.318Z,51.51
2019-03-06T13:18:02.608Z,51.54
2019-03-06T13:20:40.172Z,52.25
2019-03-06T13:23:12.379Z,51.41
2019-03-06T13:25:52.124Z,52.06
2019-03-06T13:28:27.697Z,52.18
2019-03-06T13:30:59.616Z,52.71
2019-03-06T13:33:37.544Z,52.96
2019-03-06T13:36:09.596Z,53.23
2019-03-06T13:38:41.474Z,52.26
2019-03-06T13:41:13.382Z,52.69
2019-03-06T13:43:45.274Z,52.71
2019-03-06T13:46:17.388Z,52.82
2019-03-06T13:48:49.625Z,53.59
2019-03-06T13:51:21.505Z,53.74
2019-03-06T13:53:58.621Z,53.98
2019-03-06T13:56:29.712Z,53.50
2019-03-06T13:59:01.656Z,53.09
2019-03-06T14:01:33.544Z,53.44
2019-03-06T14:04:05.430Z,53.93
2019-03-06T14:06:37.366Z,53.48
2019-03-06T14:09:10.790Z,53.68
2019-03-06T14:11:43.942Z,62.45
2019-03-06T14:14:15.808Z,56.46
2019-03-06T14:16:47.639Z,51.39
2019-03-06T14:19:19.484Z,50.50
2019-03-06T14:21:51.392Z,49.20
2019-03-06T14:24:23.571Z,49.48
2019-03-06T14:26:55.563Z,48.20
2019-03-06T14:29:27.502Z,46.24
2019-03-06T14:31:59.384Z,48.55
2019-03-06T14:34:31.276Z,50.24
2019-03-06T14:37:03.585Z,52.55
2019-03-06T14:39:35.407Z,53.09
2019-03-06T14:42:07.526Z,53.26
2019-03-06T14:44:39.403Z,54.03
2019-03-06T14:47:13.650Z,54.35
2019-03-06T14:49:45.546Z,54.54
2019-03-06T14:52:17.481Z,54.97
2019-03-06T14:54:49.327Z,55.08
2019-03-06T14:57:21.207Z,55.37
2019-03-06T14:59:53.302Z,55.46
2019-03-06T15:02:25.191Z,55.38
2019-03-06T15:04:57.087Z,55.67
2019-03-06T15:07:29.087Z,55.73
2019-03-06T15:10:00.964Z,56.21
2019-03-06T15:12:34.107Z,55.56
2019-03-06T15:15:06.309Z,55.90
2019-03-06T15:17:38.358Z,55.73
2019-03-06T15:20:14.030Z,55.77
2019-03-06T15:22:46.319Z,55.81
2019-03-06T15:25:22.241Z,56.28
2019-03-06T15:27:54.337Z,56.54
2019-03-06T15:30:26.571Z,57.16
2019-03-06T15:33:00.542Z,57.16
2019-03-06T15:35:32.361Z,57.52
2019-03-06T15:38:05.897Z,57.96
2019-03-06T15:40:40.498Z,58.43
2019-03-06T15:43:16.897Z,58.68
2019-03-06T15:45:48.834Z,58.96
2019-03-06T15:49:02.039Z,59.03
2019-03-06T15:52:17.874Z,58.89
2019-03-06T15:54:55.381Z,58.84
2019-03-06T15:57:28.673Z,59.16
2019-03-06T16:00:00.991Z,59.27
2019-03-06T16:02:35.382Z,59.06
2019-03-06T16:05:09.376Z,59.28
2019-03-06T16:07:42.253Z,59.67
2019-03-06T16:10:38.369Z,60.06
2019-03-06T17:39:51.400Z,68.80
2019-03-06T17:42:25.615Z,69.11
2019-03-06T17:45:00.562Z,69.40
2019-03-06T17:47:35.040Z,69.49
2019-03-06T17:50:07.443Z,69.73
2019-03-06T17:52:39.768Z,69.96
2019-03-06T17:55:12.187Z,70.13
2019-03-06T17:57:44.370Z,70.25
2019-03-06T18:00:19.655Z,70.03
2019-03-06T18:02:51.951Z,69.80
2019-03-06T18:05:49.610Z,69.52
2019-03-06T18:08:21.314Z,69.77
2019-03-06T18:10:55.532Z,69.98
2019-03-06T18:13:27.520Z,69.90
2019-03-06T18:15:59.338Z,70.03
2019-03-06T18:18:34.854Z,70.21
2019-03-06T18:21:07.335Z,70.29
2019-03-06T18:23:40.704Z,70.31
2019-03-06T18:26:12.900Z,70.29
2019-03-06T18:28:45.224Z,70.05
2019-03-06T18:31:20.305Z,70.08
2019-03-06T18:33:52.626Z,70.11
2019-03-06T18:36:25.167Z,69.81
2019-03-06T18:38:57.733Z,69.75
2019-03-06T18:41:32.642Z,69.66
2019-03-06T18:44:06.568Z,69.24
2019-03-06T18:46:38.606Z,69.30
2019-03-06T18:49:10.657Z,69.31
2019-03-06T18:51:42.621Z,68.95
2019-03-06T18:54:14.578Z,68.60
2019-03-06T18:56:46.597Z,68.01
2019-03-06T18:59:18.559Z,67.79
2019-03-06T19:01:50.478Z,67.66
2019-03-06T19:04:24.760Z,67.41
2019-03-06T19:06:56.665Z,66.79
2019-03-06T19:09:29.454Z,66.55
2019-03-06T19:12:01.816Z,66.25
2019-03-06T19:14:33.947Z,66.40
2019-03-06T19:17:06.134Z,66.46
2019-03-06T19:19:39.690Z,66.68
2019-03-06T19:22:11.777Z,66.90
2019-03-06T19:24:44.062Z,66.81
2019-03-06T19:27:21.322Z,66.89
2019-03-06T19:30:57.254Z,67.40
2019-03-06T19:37:02.810Z,68.00
2019-03-06T19:39:35.218Z,67.81
2019-03-06T19:42:12.637Z,67.88
2019-03-06T19:45:32.527Z,67.85
2019-03-06T19:47:30.229Z,68.00
2019-03-06T19:50:17.589Z,68.13
2019-03-06T19:53:35.379Z,68.54
2019-03-06T19:55:46.746Z,68.70
2019-03-06T19:58:50.635Z,68.61
2019-03-06T20:01:27.877Z,68.54
2019-03-06T20:04:18.542Z,68.09
2019-03-06T20:07:02.655Z,67.91
2019-03-06T20:09:35.265Z,67.39
2019-03-06T20:12:21.865Z,67.11
2019-03-06T20:15:37.133Z,66.92
2019-03-06T20:18:10.876Z,66.88
2019-03-06T20:20:44.545Z,66.45
2019-03-06T20:23:16.878Z,66.27
2019-03-06T20:25:53.229Z,66.12
2019-03-06T20:28:29.585Z,65.95
2019-03-06T20:31:03.005Z,65.56
2019-03-06T20:34:17.703Z,65.44
2019-03-06T20:36:51.483Z,65.22
2019-03-06T20:39:23.681Z,65.13
2019-03-06T20:41:56.114Z,65.34
2019-03-06T20:44:28.525Z,65.49
2019-03-06T21:01:43.086Z,65.12
2019-03-06T21:04:15.095Z,65.28
2019-03-06T21:06:50.477Z,65.14
2019-03-06T21:09:24.976Z,65.16
2019-03-06T21:11:58.752Z,64.80
2019-03-06T21:14:30.823Z,64.14
2019-03-06T21:17:02.977Z,64.12
2019-03-06T21:19:36.682Z,63.78
2019-03-06T21:22:08.834Z,63.85
2019-03-06T21:24:40.823Z,63.61
2019-03-06T21:27:12.781Z,63.61
2019-03-06T21:29:44.976Z,63.03
2019-03-06T21:32:16.909Z,62.71
2019-03-06T21:34:49.332Z,62.96
2019-03-06T21:37:21.344Z,63.62
2019-03-06T21:39:53.347Z,63.20
2019-03-06T21:42:27.127Z,63.48
2019-03-06T21:44:59.189Z,63.30
2019-03-06T21:47:31.263Z,63.20
2019-03-06T21:50:03.380Z,63.38
2019-03-06T21:52:35.721Z,62.99
2019-03-06T21:55:08.956Z,62.24
2019-03-06T21:57:41.047Z,61.81
2019-03-06T22:00:19.656Z,62.05
2019-03-06T22:02:51.660Z,62.41
2019-03-06T22:05:24.837Z,62.46
2019-03-06T22:07:56.874Z,61.99
2019-03-06T22:10:29.188Z,61.93
2019-03-06T22:13:01.206Z,61.91
2019-03-06T22:15:33.152Z,62.44
2019-03-06T22:18:05.058Z,62.46
2019-03-06T22:20:36.991Z,62.01
2019-03-06T22:23:08.996Z,61.94
2019-03-06T22:25:40.911Z,62.13
2019-03-06T22:28:12.818Z,62.24
2019-03-06T22:30:44.742Z,62.31
2019-03-06T22:33:16.664Z,62.11
2019-03-06T22:35:48.592Z,62.23
2019-03-06T22:38:21.786Z,62.07
2019-03-06T22:40:53.686Z,61.67
2019-03-06T22:43:25.622Z,61.70
2019-03-06T22:45:57.481Z,61.67
2019-03-06T22:48:29.536Z,61.88
2019-03-06T22:51:01.605Z,61.98
2019-03-06T22:53:33.598Z,62.25
2019-03-06T22:56:05.532Z,62.17
2019-03-06T22:58:37.742Z,61.64
2019-03-06T23:01:29.961Z,61.72
2019-03-06T23:04:02.331Z,61.83
2019-03-06T23:06:34.647Z,61.56
2019-03-06T23:09:13.128Z,61.52
2019-03-06T23:11:45.614Z,61.78
2019-03-06T23:14:17.552Z,61.33
2019-03-06T23:16:49.519Z,61.36
2019-03-06T23:19:21.428Z,61.27
2019-03-06T23:21:53.394Z,61.36
2019-03-06T23:24:25.337Z,61.25
2019-03-06T23:26:57.290Z,61.26
2019-03-06T23:29:29.309Z,61.43
2019-03-06T23:32:01.211Z,61.46
2019-03-06T23:34:33.375Z,61.21
2019-03-06T23:37:05.256Z,61.04
2019-03-06T23:39:37.334Z,61.33
2019-03-06T23:42:09.392Z,61.17
2019-03-06T23:44:41.407Z,61.24
2019-03-06T23:47:14.376Z,61.33
2019-03-06T23:49:46.171Z,61.31
2019-03-06T23:52:26.203Z,60.75
2019-03-06T23:54:58.049Z,60.95
2019-03-06T23:57:29.957Z,61.52
